Silver Cloud — C6MQ5 — position and weather

sailwx.info

Track history (hours):
 
Tides and Currents Weather Stations Pressure Air Temp Water Temp Dewpoint Dewpoint Depression Visibility Wind Speed Wind Dir Waves Ship Positions

Silver Cloud

Operator: V Ships Leisure SAM

Last reported at 2016-Feb-13 04:32 UTC. Time now 2016-Feb-13 04:37 UTC.
Position S 34°59' E 019°31'.

Length 155 m; draft 5.7 m.

Type: Passenger vessel. MMSI: 309027000.

Date/timePositionNaut miles runAvg speedWind from/ knotsBaromVisibWave heightAir tempDewpointWater temp
2016-Feb-13 04:32S 34°59' E 019°31'1615.8
2016-Feb-13 03:29S 34°52' E 019°13'4715.8
2016-Feb-13 00:29S 34°28' E 018°24'1815.7
2016-Feb-12 23:18S 34°12' E 018°12'1215.6
2016-Feb-12 22:32S 33°60' E 018°13'1313.5
2016-Feb-12 21:33S 33°51' E 018°25'3 3.4
2016-Feb-12 20:34S 33°55' E 018°26'0 0.0
2016-Feb-12 19:32S 33°55' E 018°26'0 0.0
2016-Feb-12 18:32S 33°55' E 018°26'0 0.0
2016-Feb-12 17:32S 33°55' E 018°26'0 0.0
2016-Feb-12 16:32S 33°55' E 018°26'0 0.0
2016-Feb-12 15:32S 33°55' E 018°26'0 0.0
2016-Feb-12 14:32S 33°55' E 018°26'0 0.0
2016-Feb-12 13:32S 33°55' E 018°26'0 0.0
2016-Feb-12 12:32S 33°55' E 018°26'0 0.0
2016-Feb-12 11:32S 33°55' E 018°26'0 0.0
2016-Feb-12 10:32S 33°55' E 018°26'0 0.0
2016-Feb-12 09:32S 33°55' E 018°26'0 0.0
2016-Feb-12 08:32S 33°55' E 018°26'0 0.0
2016-Feb-12 07:32S 33°55' E 018°26'0 0.0
2016-Feb-12 06:32S 33°55' E 018°26'2 1.6
2016-Feb-12 05:33S 33°53' E 018°26'7 6.7
2016-Feb-12 04:32S 33°56' E 018°19'1310.2
2016-Feb-12 03:16S 34°08' E 018°13'811.3
2016-Feb-12 02:33S 34°17' E 018°15'1312.7
2016-Feb-12 01:33S 34°26' E 018°25'8215.6
2016-Feb-11 20:18S 34°57' E 019°57'35015.3
2016-Feb-10 21:20S 34°04' E 026°57'2915.8
2016-Feb-10 19:29S 33°45' E 027°24'1615.8
2016-Feb-10 18:29S 33°34' E 027°37'25711.2
2016-Feb-09 19:27S 30°21' E 030°59'1416.1
2016-Feb-09 18:33S 30°08' E 031°06'1515.1
2016-Feb-09 17:33S 29°54' E 031°10'7 6.5
2016-Feb-09 16:31S 29°52' E 031°02'0 0.0
2016-Feb-09 15:31S 29°52' E 031°02'  
2016-Feb-05 15:33S 29°28' E 031°42'1818.4
2016-Feb-05 14:33S 29°43' E 031°30'1919.0
2016-Feb-05 13:33S 29°58' E 031°17'1818.4
2016-Feb-05 12:33S 30°13' E 031°04'24016.8
2016-Feb-04 22:17S 33°11' E 027°54'2715.3
2016-Feb-04 20:32S 33°27' E 027°29'1916.5
2016-Feb-04 19:22S 33°37' E 027°09'1717.8
2016-Feb-04 18:26S 33°46' E 026°52'2017.7
2016-Feb-04 17:16S 33°54' E 026°29'  
Track history (hours):
 
Tides and Currents Weather Stations Pressure Air Temp Water Temp Dewpoint Dewpoint Depression Visibility Wind Speed Wind Dir Waves Ship Positions

Silver Cloud

Operator: V Ships Leisure SAM

Last reported at 2016-Feb-13 04:32 UTC. Time now 2016-Feb-13 04:37 UTC.
Position S 34°59' E 019°31'.

Length 155 m; draft 5.7 m.

Type: Passenger vessel. MMSI: 309027000.

Date/timePositionNaut miles runAvg speedWind from/ knotsBaromVisibWave heightAir tempDewpointWater temp
2016-Feb-13 04:32S 34°59' E 019°31'1615.8
2016-Feb-13 03:29S 34°52' E 019°13'4715.8
2016-Feb-13 00:29S 34°28' E 018°24'1815.7
2016-Feb-12 23:18S 34°12' E 018°12'1215.6
2016-Feb-12 22:32S 33°60' E 018°13'1313.5
2016-Feb-12 21:33S 33°51' E 018°25'3 3.4
2016-Feb-12 20:34S 33°55' E 018°26'0 0.0
2016-Feb-12 19:32S 33°55' E 018°26'0 0.0
2016-Feb-12 18:32S 33°55' E 018°26'0 0.0
2016-Feb-12 17:32S 33°55' E 018°26'0 0.0
2016-Feb-12 16:32S 33°55' E 018°26'0 0.0
2016-Feb-12 15:32S 33°55' E 018°26'0 0.0
2016-Feb-12 14:32S 33°55' E 018°26'0 0.0
2016-Feb-12 13:32S 33°55' E 018°26'0 0.0
2016-Feb-12 12:32S 33°55' E 018°26'0 0.0
2016-Feb-12 11:32S 33°55' E 018°26'0 0.0
2016-Feb-12 10:32S 33°55' E 018°26'0 0.0
2016-Feb-12 09:32S 33°55' E 018°26'0 0.0
2016-Feb-12 08:32S 33°55' E 018°26'0 0.0
2016-Feb-12 07:32S 33°55' E 018°26'0 0.0
2016-Feb-12 06:32S 33°55' E 018°26'2 1.6
2016-Feb-12 05:33S 33°53' E 018°26'7 6.7
2016-Feb-12 04:32S 33°56' E 018°19'1310.2
2016-Feb-12 03:16S 34°08' E 018°13'811.3
2016-Feb-12 02:33S 34°17' E 018°15'1312.7
2016-Feb-12 01:33S 34°26' E 018°25'8215.6
2016-Feb-11 20:18S 34°57' E 019°57'35015.3
2016-Feb-10 21:20S 34°04' E 026°57'2915.8
2016-Feb-10 19:29S 33°45' E 027°24'1615.8
2016-Feb-10 18:29S 33°34' E 027°37'25711.2
2016-Feb-09 19:27S 30°21' E 030°59'1416.1
2016-Feb-09 18:33S 30°08' E 031°06'1515.1
2016-Feb-09 17:33S 29°54' E 031°10'7 6.5
2016-Feb-09 16:31S 29°52' E 031°02'0 0.0
2016-Feb-09 15:31S 29°52' E 031°02'  
2016-Feb-05 15:33S 29°28' E 031°42'1818.4
2016-Feb-05 14:33S 29°43' E 031°30'1919.0
2016-Feb-05 13:33S 29°58' E 031°17'1818.4
2016-Feb-05 12:33S 30°13' E 031°04'24016.8
2016-Feb-04 22:17S 33°11' E 027°54'2715.3
2016-Feb-04 20:32S 33°27' E 027°29'1916.5
2016-Feb-04 19:22S 33°37' E 027°09'1717.8
2016-Feb-04 18:26S 33°46' E 026°52'2017.7
2016-Feb-04 17:16S 33°54' E 026°29'  

Dump ship's entire track history